createdAt,value
2023-03-07T00:02:08.542Z,7.82
2023-03-07T00:04:36.823Z,6.80
2023-03-07T00:07:05.141Z,8.07
2023-03-07T00:09:33.436Z,7.78
2023-03-07T00:12:01.694Z,7.95
2023-03-07T00:14:31.377Z,8.75
2023-03-07T00:16:59.664Z,9.00
2023-03-07T00:19:28.080Z,8.60
2023-03-07T00:21:56.372Z,7.78
2023-03-07T00:24:24.720Z,8.35
2023-03-07T00:26:53.070Z,8.55
2023-03-07T00:29:22.532Z,8.38
2023-03-07T00:31:52.255Z,8.30
2023-03-07T00:34:21.488Z,9.03
2023-03-07T00:36:49.780Z,8.57
2023-03-07T00:39:18.076Z,8.77
2023-03-07T00:41:46.387Z,8.90
2023-03-07T00:44:14.654Z,8.45
2023-03-07T00:46:42.976Z,8.75
2023-03-07T00:49:13.162Z,8.85
2023-03-07T00:51:41.412Z,8.15
2023-03-07T00:54:09.719Z,9.05
2023-03-07T00:56:37.952Z,9.25
2023-03-07T00:59:06.300Z,9.25
2023-03-07T01:01:34.647Z,8.40
2023-03-07T01:04:02.935Z,8.68
2023-03-07T01:06:33.943Z,9.02
2023-03-07T01:09:03.774Z,9.18
2023-03-07T01:11:32.932Z,8.57
2023-03-07T01:14:02.853Z,9.23
2023-03-07T01:16:32.628Z,9.40
2023-03-07T01:19:02.505Z,9.40
2023-03-07T01:21:53.688Z,9.20
2023-03-07T01:24:21.988Z,8.77
2023-03-07T01:26:50.396Z,8.82
2023-03-07T01:29:18.670Z,8.55
2023-03-07T01:31:46.997Z,9.30
2023-03-07T01:34:15.305Z,8.95
2023-03-07T01:36:44.943Z,9.25
2023-03-07T01:39:14.894Z,8.83
2023-03-07T01:41:43.617Z,8.70
2023-03-07T01:44:17.277Z,8.55
2023-03-07T01:46:52.802Z,9.57
2023-03-07T01:49:24.884Z,8.65
2023-03-07T01:51:58.353Z,9.18
2023-03-07T01:54:27.401Z,9.38
2023-03-07T01:56:55.931Z,9.65
2023-03-07T01:59:29.907Z,9.52
2023-03-07T02:01:59.152Z,8.73
2023-03-07T02:04:30.073Z,8.68
2023-03-07T02:07:00.767Z,9.02
2023-03-07T02:11:57.936Z,7.95
2023-03-07T02:14:26.306Z,8.15
2023-03-07T02:16:54.814Z,8.57
2023-03-07T02:19:46.663Z,8.63
2023-03-07T02:22:18.468Z,8.32
2023-03-07T02:24:51.730Z,8.52
2023-03-07T02:27:21.507Z,9.57
2023-03-07T02:29:49.812Z,8.98
2023-03-07T02:32:18.137Z,9.40
2023-03-07T02:34:46.479Z,9.77
2023-03-07T02:37:18.354Z,9.82
2023-03-07T02:39:47.848Z,9.20
2023-03-07T02:42:19.884Z,8.63
2023-03-07T02:44:57.423Z,9.77
2023-03-07T02:47:25.747Z,9.70
2023-03-07T02:49:54.622Z,9.38
2023-03-07T02:52:23.474Z,8.63
2023-03-07T02:54:51.790Z,9.95
2023-03-07T02:57:20.617Z,8.63
2023-03-07T02:59:50.249Z,8.43
2023-03-07T03:02:18.569Z,8.73
2023-03-07T03:04:46.859Z,8.30
2023-03-07T03:07:15.248Z,8.43
2023-03-07T03:09:43.528Z,8.95
2023-03-07T03:12:12.088Z,8.40
2023-03-07T03:14:40.644Z,7.60
2023-03-07T03:17:10.303Z,8.40
2023-03-07T03:19:38.814Z,8.77
2023-03-07T03:22:07.145Z,7.47
2023-03-07T03:24:38.729Z,7.97
2023-03-07T03:27:07.126Z,8.65
2023-03-07T03:29:35.885Z,7.53
2023-03-07T03:32:04.464Z,8.00
2023-03-07T03:34:34.163Z,7.57
2023-03-07T03:37:02.471Z,8.97
2023-03-07T03:39:30.906Z,8.18
2023-03-07T03:41:59.233Z,7.80
2023-03-07T03:44:27.494Z,7.88
2023-03-07T03:46:55.872Z,7.90
2023-03-07T03:49:24.396Z,6.40
2023-03-07T03:51:54.080Z,7.57
2023-03-07T03:54:22.383Z,6.87
2023-03-07T03:56:50.606Z,7.63
2023-03-07T03:59:18.927Z,6.20
2023-03-07T04:01:47.840Z,7.63
2023-03-07T04:04:16.671Z,8.98
2023-03-07T04:06:44.957Z,7.13
2023-03-07T04:09:14.560Z,7.07
2023-03-07T04:11:43.003Z,7.63
2023-03-07T04:14:11.355Z,7.63
2023-03-07T04:16:40.027Z,6.47
2023-03-07T04:19:10.130Z,7.38
2023-03-07T04:21:38.433Z,7.10
2023-03-07T04:24:07.723Z,6.45
2023-03-07T04:26:37.829Z,7.63
2023-03-07T04:29:06.190Z,6.93
2023-03-07T04:31:34.489Z,6.50
2023-03-07T04:34:02.840Z,7.10
2023-03-07T04:36:31.222Z,7.97
2023-03-07T04:38:59.483Z,6.97
2023-03-07T04:41:27.790Z,7.13
2023-03-07T04:43:57.492Z,7.35
2023-03-07T04:46:26.336Z,7.37
2023-03-07T04:48:54.663Z,8.20
2023-03-07T04:51:23.010Z,6.93
2023-03-07T04:53:51.420Z,5.80
2023-03-07T04:56:19.759Z,6.60
2023-03-07T04:58:48.080Z,6.40
2023-03-07T05:01:17.798Z,7.03
2023-03-07T05:03:46.094Z,5.30
2023-03-07T05:06:16.165Z,5.78
2023-03-07T05:08:44.466Z,7.60
2023-03-07T05:11:12.746Z,7.57
2023-03-07T05:13:41.080Z,4.82
2023-03-07T05:16:09.854Z,6.47
2023-03-07T05:18:39.604Z,6.03
2023-03-07T05:21:07.938Z,6.87
2023-03-07T05:23:36.317Z,5.15
2023-03-07T05:26:04.707Z,5.15
2023-03-07T05:28:34.073Z,6.22
2023-03-07T05:31:02.586Z,5.18
2023-03-07T05:33:31.714Z,5.93
2023-03-07T05:36:02.440Z,6.15
2023-03-07T05:38:30.812Z,5.38
2023-03-07T05:40:59.156Z,6.25
2023-03-07T05:43:27.537Z,4.07
2023-03-07T05:45:55.912Z,6.30
2023-03-07T05:48:24.305Z,5.90
2023-03-07T05:50:52.580Z,6.18
2023-03-07T05:53:22.286Z,5.30
2023-03-07T05:55:50.598Z,6.17
2023-03-07T05:58:18.935Z,5.82
2023-03-07T06:00:47.332Z,4.60
2023-03-07T06:03:15.619Z,6.38
2023-03-07T06:05:44.728Z,6.13
2023-03-07T06:08:12.975Z,6.80
2023-03-07T06:10:43.166Z,6.70
2023-03-07T06:13:20.630Z,5.85
2023-03-07T06:15:50.649Z,5.10
2023-03-07T06:18:19.181Z,6.05
2023-03-07T06:20:56.113Z,5.55
2023-03-07T06:23:24.624Z,6.57
2023-03-07T06:25:54.357Z,7.57
2023-03-07T06:28:22.982Z,6.40
2023-03-07T06:30:51.437Z,6.78
2023-03-07T06:33:19.851Z,5.13
2023-03-07T06:35:48.247Z,4.65
2023-03-07T06:38:18.530Z,5.57
2023-03-07T06:40:46.816Z,4.10
2023-03-07T06:43:16.489Z,5.22
2023-03-07T06:45:44.768Z,4.50
2023-03-07T06:48:13.036Z,4.60
2023-03-07T06:50:41.416Z,5.13
2023-03-07T06:53:09.704Z,5.55
2023-03-07T06:55:38.047Z,4.68
2023-03-07T06:58:06.292Z,4.43
2023-03-07T07:00:36.055Z,3.60
2023-03-07T07:03:04.598Z,5.23
2023-03-07T07:05:32.924Z,4.85
2023-03-07T07:08:01.189Z,4.82
2023-03-07T07:10:29.489Z,4.95
2023-03-07T07:12:58.103Z,3.92
2023-03-07T07:15:27.684Z,3.45
2023-03-07T07:17:57.374Z,4.30
2023-03-07T07:20:25.780Z,7.07
2023-03-07T07:22:54.107Z,5.20
2023-03-07T07:25:22.384Z,3.72
2023-03-07T07:27:50.733Z,4.97
2023-03-07T07:30:19.255Z,5.15
2023-03-07T07:32:48.177Z,4.35
2023-03-07T07:35:18.049Z,5.32
2023-03-07T07:37:46.369Z,3.55
2023-03-07T07:40:15.397Z,5.00
2023-03-07T07:42:44.376Z,4.82
2023-03-07T07:45:12.992Z,4.05
2023-03-07T07:47:41.255Z,3.95
2023-03-07T07:50:10.708Z,5.60
2023-03-07T07:52:40.379Z,3.83
2023-03-07T07:55:10.277Z,4.87
2023-03-07T07:57:38.589Z,4.97
2023-03-07T08:00:09.065Z,3.60
2023-03-07T08:02:37.779Z,3.92
2023-03-07T08:05:10.206Z,6.15
2023-03-07T08:07:39.963Z,5.60
2023-03-07T08:10:09.892Z,5.75
2023-03-07T08:12:38.313Z,4.25
2023-03-07T08:15:07.712Z,4.95
2023-03-07T08:17:36.020Z,4.93
2023-03-07T08:20:09.219Z,3.35
2023-03-07T08:22:37.663Z,7.28
2023-03-07T08:25:09.274Z,4.40
2023-03-07T08:27:37.553Z,5.13
2023-03-07T08:30:06.791Z,4.80
2023-03-07T08:32:35.216Z,6.20
2023-03-07T08:35:04.081Z,5.10
2023-03-07T08:37:32.373Z,3.75
2023-03-07T08:40:00.625Z,2.83
2023-03-07T08:42:30.345Z,3.78
2023-03-07T08:44:58.659Z,3.57
2023-03-07T08:47:27.084Z,4.53
2023-03-07T08:49:55.328Z,4.15
2023-03-07T08:52:24.862Z,2.75
2023-03-07T08:54:53.144Z,4.28
2023-03-07T08:57:21.394Z,4.00
2023-03-07T08:59:51.312Z,3.47
2023-03-07T09:02:19.650Z,2.83
2023-03-07T09:04:48.543Z,3.70
2023-03-07T09:07:16.892Z,3.08
2023-03-07T09:09:45.165Z,3.80
2023-03-07T09:12:14.826Z,3.05
2023-03-07T09:14:43.294Z,4.93
2023-03-07T09:17:12.928Z,5.05
2023-03-07T09:19:42.479Z,3.75
2023-03-07T09:22:10.789Z,4.03
2023-03-07T09:24:39.104Z,3.45
2023-03-07T09:27:07.524Z,3.35
2023-03-07T09:29:35.823Z,2.83
2023-03-07T09:32:04.602Z,4.70
2023-03-07T09:34:34.263Z,4.50
2023-03-07T09:37:02.624Z,3.53
2023-03-07T09:39:30.984Z,2.88
2023-03-07T09:42:10.402Z,3.45
2023-03-07T09:44:51.335Z,3.80
2023-03-07T09:47:31.825Z,2.90
2023-03-07T09:50:02.267Z,4.38
2023-03-07T09:52:35.590Z,3.05
2023-03-07T09:55:06.208Z,3.45
2023-03-07T10:00:09.501Z,2.97
2023-03-07T10:02:40.517Z,5.00
2023-03-07T10:05:17.893Z,4.55
2023-03-07T10:07:46.293Z,4.57
2023-03-07T10:10:20.311Z,4.43
2023-03-07T10:12:59.644Z,3.97
2023-03-07T10:15:45.664Z,4.15
2023-03-07T10:18:25.947Z,5.07
2023-03-07T10:21:01.716Z,4.95
2023-03-07T10:24:04.765Z,4.57
2023-03-07T10:26:34.602Z,4.07
2023-03-07T10:29:09.347Z,4.53
2023-03-07T10:31:40.415Z,4.22
2023-03-07T10:34:25.851Z,4.68
2023-03-07T10:37:08.415Z,4.63
2023-03-07T10:39:43.571Z,4.90
2023-03-07T10:42:13.552Z,5.30
2023-03-07T10:44:42.061Z,3.80
2023-03-07T10:47:19.219Z,5.18
2023-03-07T10:49:48.666Z,4.38
2023-03-07T10:52:32.210Z,4.50
2023-03-07T10:55:32.540Z,6.07
2023-03-07T10:58:13.782Z,4.38
2023-03-07T11:00:44.322Z,5.13
2023-03-07T11:03:27.854Z,4.93
2023-03-07T11:05:56.151Z,4.43
2023-03-07T11:08:33.758Z,4.78
2023-03-07T11:11:03.233Z,3.95
2023-03-07T11:13:32.340Z,4.53
2023-03-07T11:16:12.178Z,4.05
2023-03-07T11:18:43.023Z,5.20
2023-03-07T11:21:28.295Z,4.53
2023-03-07T11:24:03.030Z,4.30
2023-03-07T11:26:34.409Z,4.85
2023-03-07T11:29:07.883Z,4.18
2023-03-07T11:31:41.702Z,4.32
2023-03-07T11:34:22.155Z,4.00
2023-03-07T11:36:56.425Z,4.72
2023-03-07T11:39:34.154Z,4.97
2023-03-07T11:42:05.866Z,4.25
2023-03-07T11:44:38.944Z,6.07
2023-03-07T11:47:26.030Z,5.60
2023-03-07T11:50:12.877Z,3.90
2023-03-07T11:52:56.914Z,3.67
2023-03-07T11:55:31.792Z,4.13
2023-03-07T11:58:11.507Z,3.88
2023-03-07T12:00:50.444Z,4.25
2023-03-07T12:03:30.367Z,4.45
2023-03-07T12:06:20.175Z,4.32
2023-03-07T12:08:57.776Z,3.67
2023-03-07T12:11:44.528Z,4.15
2023-03-07T12:14:21.918Z,6.20
2023-03-07T12:16:55.712Z,7.53
2023-03-07T12:19:51.542Z,5.00
2023-03-07T12:22:38.861Z,4.20
2023-03-07T12:25:20.267Z,5.20
2023-03-07T12:27:55.094Z,4.70
2023-03-07T12:30:26.739Z,5.65
2023-03-07T12:32:55.599Z,4.60
2023-03-07T12:35:26.271Z,6.70
2023-03-07T12:37:59.150Z,4.63
2023-03-07T12:40:30.621Z,4.70
2023-03-07T12:43:03.264Z,4.60
2023-03-07T12:45:37.248Z,4.90
2023-03-07T12:48:08.857Z,4.50
2023-03-07T12:50:41.389Z,4.50
2023-03-07T12:53:16.375Z,4.97
2023-03-07T12:55:46.525Z,4.43
2023-03-07T12:58:21.091Z,5.13
2023-03-07T13:00:51.358Z,4.60
2023-03-07T13:03:24.900Z,5.35
2023-03-07T13:05:53.333Z,4.68
2023-03-07T13:08:24.510Z,5.63
2023-03-07T13:10:52.785Z,4.63
2023-03-07T13:13:51.445Z,4.80
2023-03-07T13:16:37.385Z,4.80
2023-03-07T13:19:42.893Z,5.13
2023-03-07T13:22:53.861Z,4.60
2023-03-07T13:25:44.796Z,5.28
2023-03-07T13:28:51.532Z,5.38
2023-03-07T13:31:46.172Z,6.50
2023-03-07T13:34:52.995Z,6.50
2023-03-07T13:37:54.601Z,5.82
2023-03-07T13:40:46.370Z,4.22
2023-03-07T13:43:57.974Z,3.47
2023-03-07T13:46:58.736Z,7.13
2023-03-07T13:52:23.143Z,4.43
2023-03-07T13:54:52.326Z,4.18
2023-03-07T13:57:21.747Z,4.78
2023-03-07T13:59:50.469Z,4.47
2023-03-07T14:02:21.204Z,3.95
2023-03-07T14:04:54.335Z,5.38
2023-03-07T14:07:24.937Z,5.05
2023-03-07T14:12:30.125Z,5.50
2023-03-07T14:15:08.003Z,7.80
2023-03-07T14:17:53.603Z,4.15
2023-03-07T14:20:28.273Z,5.53
2023-03-07T14:23:08.551Z,4.80
2023-03-07T14:25:37.909Z,4.28
2023-03-07T14:28:21.490Z,3.63
2023-03-07T14:30:57.606Z,5.18
2023-03-07T14:33:32.596Z,5.75
2023-03-07T14:36:01.153Z,5.40
2023-03-07T14:38:29.606Z,4.38
2023-03-07T14:41:15.144Z,4.70
2023-03-07T14:43:54.110Z,3.55
2023-03-07T14:46:29.754Z,5.13
2023-03-07T14:49:09.019Z,4.25
2023-03-07T14:51:41.403Z,3.70
2023-03-07T14:54:16.205Z,4.18
2023-03-07T14:56:44.831Z,4.47
2023-03-07T14:59:26.330Z,3.58
2023-03-07T15:01:56.984Z,4.07
2023-03-07T15:04:28.967Z,5.03
2023-03-07T15:06:59.072Z,4.90
2023-03-07T15:09:27.743Z,4.60
2023-03-07T15:12:00.964Z,4.45
2023-03-07T15:14:36.157Z,3.83
2023-03-07T15:17:05.518Z,4.93
2023-03-07T15:19:39.367Z,4.10
2023-03-07T15:22:12.796Z,4.28
2023-03-07T15:24:44.996Z,4.30
2023-03-07T15:27:15.615Z,5.38
2023-03-07T15:32:31.191Z,4.38
2023-03-07T15:35:05.165Z,4.78
2023-03-07T15:37:34.068Z,5.03
2023-03-07T15:40:03.851Z,4.65
2023-03-07T15:42:32.104Z,4.20
2023-03-07T15:45:01.532Z,5.43
2023-03-07T15:47:31.568Z,4.70
2023-03-07T15:50:04.900Z,4.90
2023-03-07T15:52:35.245Z,3.67
2023-03-07T15:55:08.070Z,3.85
2023-03-07T15:57:40.162Z,4.95
2023-03-07T16:00:16.033Z,5.35
2023-03-07T16:02:46.792Z,4.82
2023-03-07T16:05:32.978Z,4.30
2023-03-07T16:08:01.368Z,5.38
2023-03-07T16:10:31.204Z,3.78
2023-03-07T16:13:01.168Z,4.60
2023-03-07T16:15:29.549Z,4.03
2023-03-07T16:17:58.787Z,4.05
2023-03-07T16:20:29.632Z,3.88
2023-03-07T16:22:58.320Z,4.28
2023-03-07T16:25:29.638Z,4.07
2023-03-07T16:28:01.040Z,5.65
2023-03-07T16:30:30.768Z,4.72
2023-03-07T16:32:59.074Z,4.03
2023-03-07T16:35:30.610Z,5.30
2023-03-07T16:37:59.212Z,4.95
2023-03-07T16:40:27.558Z,4.22
2023-03-07T16:42:56.827Z,4.63
2023-03-07T16:45:27.922Z,4.70
2023-03-07T16:47:58.317Z,5.30
2023-03-07T16:50:29.153Z,4.00
2023-03-07T16:52:58.909Z,4.15
2023-03-07T16:55:27.610Z,4.87
2023-03-07T16:57:58.881Z,4.95
2023-03-07T17:00:28.309Z,5.32
2023-03-07T17:02:58.978Z,5.72
2023-03-07T17:07:58.267Z,6.93
2023-03-07T17:10:27.496Z,5.75
2023-03-07T17:12:57.315Z,6.60
2023-03-07T17:15:30.677Z,5.80
2023-03-07T17:17:59.869Z,7.05
2023-03-07T17:20:28.744Z,6.03
2023-03-07T17:22:58.639Z,6.35
2023-03-07T17:25:27.874Z,6.60
2023-03-07T17:27:59.229Z,6.25
2023-03-07T17:30:28.871Z,5.78
2023-03-07T17:32:57.618Z,6.00
2023-03-07T17:35:28.431Z,6.75
2023-03-07T17:37:58.096Z,5.68
2023-03-07T17:40:26.427Z,6.50
2023-03-07T17:42:57.408Z,6.82
2023-03-07T17:45:25.792Z,5.40
2023-03-07T17:47:55.170Z,5.35
2023-03-07T17:50:24.809Z,3.92
2023-03-07T17:52:53.768Z,3.57
2023-03-07T17:55:24.989Z,5.10
2023-03-07T17:57:53.510Z,4.05
2023-03-07T18:00:22.959Z,4.20
2023-03-07T18:02:51.396Z,5.10
2023-03-07T18:05:20.203Z,4.75
2023-03-07T18:07:51.515Z,3.88
2023-03-07T18:10:20.193Z,5.43
2023-03-07T18:12:50.668Z,5.80
2023-03-07T18:15:20.329Z,6.20
2023-03-07T18:17:50.278Z,6.28
2023-03-07T18:20:19.866Z,6.20
2023-03-07T18:22:48.305Z,5.90
2023-03-07T18:25:17.845Z,5.70
2023-03-07T18:27:46.694Z,6.70
2023-03-07T18:30:17.766Z,6.20
2023-03-07T18:32:46.255Z,5.93
2023-03-07T18:35:16.488Z,5.57
2023-03-07T18:37:45.487Z,5.60
2023-03-07T18:40:14.684Z,6.60
2023-03-07T18:42:43.551Z,7.35
2023-03-07T18:45:12.861Z,5.82
2023-03-07T18:47:42.584Z,7.65
2023-03-07T18:50:12.028Z,6.93
2023-03-07T18:52:40.347Z,7.25
2023-03-07T18:55:09.355Z,6.40
2023-03-07T18:57:37.678Z,6.82
2023-03-07T19:00:10.170Z,7.38
2023-03-07T19:02:39.120Z,6.60
2023-03-07T19:05:10.826Z,7.45
2023-03-07T19:07:39.111Z,7.63
2023-03-07T19:10:08.057Z,7.88
2023-03-07T19:12:36.607Z,7.97
2023-03-07T19:15:05.773Z,8.75
2023-03-07T19:17:39.319Z,8.63
2023-03-07T19:20:10.502Z,8.85
2023-03-07T19:22:38.795Z,8.88
2023-03-07T19:25:07.841Z,9.93
2023-03-07T19:27:36.133Z,10.38
2023-03-07T19:30:05.405Z,9.77
2023-03-07T19:32:33.814Z,9.10
2023-03-07T19:35:02.070Z,8.45
2023-03-07T19:37:31.745Z,7.25
2023-03-07T19:39:59.969Z,6.77
2023-03-07T19:42:28.300Z,7.18
2023-03-07T19:44:56.590Z,7.20
2023-03-07T19:47:26.151Z,7.18
2023-03-07T19:49:54.449Z,7.15
2023-03-07T19:52:22.701Z,7.28
2023-03-07T19:54:54.205Z,7.30
2023-03-07T19:57:22.440Z,7.40
2023-03-07T19:59:53.618Z,7.47
2023-03-07T20:02:22.868Z,8.73
2023-03-07T20:04:53.054Z,11.40
2023-03-07T20:07:21.287Z,10.32
2023-03-07T20:09:53.635Z,9.30
2023-03-07T20:12:21.894Z,8.23
2023-03-07T20:14:50.476Z,9.20
2023-03-07T20:17:18.753Z,7.95
2023-03-07T20:19:47.287Z,7.68
2023-03-07T20:22:15.698Z,7.28
2023-03-07T20:24:44.016Z,7.68
2023-03-07T20:27:20.229Z,6.95
2023-03-07T20:29:48.910Z,7.60
2023-03-07T20:32:17.654Z,7.03
2023-03-07T20:34:46.255Z,7.22
2023-03-07T20:37:14.582Z,7.35
2023-03-07T20:39:43.748Z,7.93
2023-03-07T20:42:13.366Z,7.43
2023-03-07T20:44:41.728Z,8.13
2023-03-07T20:47:09.988Z,8.50
2023-03-07T20:49:38.226Z,7.18
2023-03-07T20:52:06.497Z,8.43
2023-03-07T20:54:34.953Z,7.68
2023-03-07T20:57:03.568Z,7.70
2023-03-07T20:59:33.326Z,8.50
2023-03-07T21:02:01.643Z,7.97
2023-03-07T21:04:29.923Z,7.68
2023-03-07T21:06:58.195Z,8.63
2023-03-07T21:09:26.446Z,8.98
2023-03-07T21:11:55.005Z,8.45
2023-03-07T21:14:24.660Z,7.22
2023-03-07T21:16:54.257Z,8.57
2023-03-07T21:19:22.465Z,7.20
2023-03-07T21:21:50.685Z,6.90
2023-03-07T21:24:18.919Z,7.35
2023-03-07T21:26:47.220Z,5.72
2023-03-07T21:29:16.063Z,5.85
2023-03-07T21:31:44.377Z,6.57
2023-03-07T21:34:15.098Z,6.75
2023-03-07T21:36:43.517Z,5.78
2023-03-07T21:39:11.843Z,5.57
2023-03-07T21:41:40.239Z,5.90
2023-03-07T21:44:09.101Z,7.68
2023-03-07T21:46:37.382Z,6.85
2023-03-07T21:49:05.588Z,5.03
2023-03-07T21:51:35.284Z,4.75
2023-03-07T21:54:03.528Z,4.17
2023-03-07T21:56:31.859Z,5.60
2023-03-07T21:59:00.121Z,5.82
2023-03-07T22:01:29.845Z,6.22
2023-03-07T22:03:59.308Z,7.00
2023-03-07T22:06:28.416Z,5.47
2023-03-07T22:08:59.605Z,6.75
2023-03-07T22:11:27.976Z,7.95
2023-03-07T22:13:56.284Z,6.60
2023-03-07T22:16:24.628Z,8.65
2023-03-07T22:18:54.555Z,6.05
2023-03-07T22:21:25.003Z,5.45
2023-03-07T22:26:27.993Z,7.65
2023-03-07T22:28:56.323Z,6.45
2023-03-07T22:31:25.092Z,5.25
2023-03-07T22:33:53.652Z,7.05
2023-03-07T22:36:22.133Z,5.90
2023-03-07T22:38:54.560Z,4.95
2023-03-07T22:41:23.727Z,5.55
2023-03-07T22:43:53.480Z,4.35
2023-03-07T22:46:22.029Z,5.40
2023-03-07T22:48:53.169Z,4.13
2023-03-07T22:51:21.692Z,4.45
2023-03-07T22:53:50.031Z,6.03
2023-03-07T22:56:20.403Z,4.18
2023-03-07T22:58:49.284Z,4.75
2023-03-07T23:01:21.111Z,4.95
2023-03-07T23:03:49.908Z,5.03
2023-03-07T23:06:18.595Z,4.60
2023-03-07T23:08:47.604Z,4.97
2023-03-07T23:11:16.447Z,5.50
2023-03-07T23:13:44.888Z,6.20
2023-03-07T23:16:14.940Z,4.50
2023-03-07T23:18:45.101Z,4.03
2023-03-07T23:21:15.483Z,4.10
2023-03-07T23:23:43.852Z,6.20
2023-03-07T23:26:17.991Z,5.90
2023-03-07T23:28:46.437Z,4.78
2023-03-07T23:31:18.718Z,5.47
2023-03-07T23:33:48.827Z,5.25
2023-03-07T23:36:17.530Z,4.93
2023-03-07T23:38:46.654Z,5.90
2023-03-07T23:41:15.449Z,5.25
2023-03-07T23:43:44.730Z,4.90
2023-03-07T23:46:13.123Z,4.70
2023-03-07T23:48:41.413Z,5.00
2023-03-07T23:51:11.067Z,6.50
2023-03-07T23:53:39.345Z,6.53
2023-03-07T23:56:08.523Z,5.78
2023-03-07T23:58:37.146Z,6.10
